Terminal Aerodrome Forecast
Issued by NWS North Platte, NE

Home | Current Version | Previous Version | Text Only | Print | Product List | Glossary On
Versions: 1 2 3 4 5 6 7 8 9 10 11 12 13 14 15 16 17 18 19 20 21 22 23 24 25
491
FTUS43 KLBF 120520
TAFVTN
TAF
KVTN 120520Z 1206/1306 35005KT P6SM OVC007
     FM120800 02006KT P6SM OVC008
     FM121600 03009KT P6SM OVC015
     FM121900 05007KT P6SM OVC030
     FM130300 07008KT P6SM OVC025 PROB30 1303/1306 5SM -SN OVC015=

USA.gov is the U.S. government's official web portal to all federal, state and local government web resources and services.